Terminal Aerodrome Forecast
Issued by NWS Birmingham, AL

Home | Current Version | Previous Version | Text Only | Print | Product List | Glossary On
Versions: 1 2 3 4 5 6 7 8 9 10 11 12 13 14 15 16 17 18 19 20 21 22 23 24 25
000
FTUS44 KBMX 040805 AAA
TAFBHM
TAF AMD
KBHM 040805Z 0408/0506 13004KT P6SM VCTS SCT050CB BKN070 OVC250
      TEMPO 0408/0411 4SM TSRA SCT025CB BKN050
     FM041500 24008KT P6SM VCSH OVC040
     FM041800 24010KT P6SM VCTS OVC050CB=

USA.gov is the U.S. government's official web portal to all federal, state and local government web resources and services.